Eglin Air Force Base
KVPS : now visible

Airfield :











YOU CAN JOIN US ON...

 
LOGIN :

Register | Disclaimer

   EN    FR    IT 

 









Legend :    VFR   Marginal VFR   IFR   Intensive IFR   Very Intensive IFR
Visi :
Ceiling :
>= 8 km
>= 3000ft
5 to 8 km
1000 to 3000 ft
1500m to 5 km
500 to 1000 ft
800 to 1500m
200 to 500 ft
< 800m
< 200 ft
Symbols :   Thunderstorms  Fog  Heavy snow  Heavy precipitations  Wind > 20 kt






- Airport Elevation : 87 ft
- IATA code : VPS


KVPS - Eglin Air Force Base

CURRENT METAR :
  • 260540Z AUTO 00000KT 10SM SCT017 27/23 A2991 RMK AO2 SLP134 $

EXPIRED METARs :
  • 260530Z AUTO 00000KT 10SM BKN017 27/23 A2992 RMK AO2 CIG 017V024 SLP138 $
  • 260525Z AUTO 30003KT 10SM SCT016 BKN024 27/23 A2992 RMK AO2 BKN V SCT SLP138 $
  • 260455Z AUTO 24003KT 10SM FEW017 27/23 A2993 RMK AO2 SLP141 T02690233 $
  • 260355Z AUTO 20005KT 10SM SCT016 28/24 A2993 RMK AO2 SLP141 T02780236 $
  • 260255Z AUTO 22006KT 10SM SCT015 28/24 A2992 RMK AO2 SLP138 T02750239 52012 $
  • 260155Z AUTO 24007KT 10SM CLR 28/23 A2990 RMK AO2 SLP131 T02750233 $
  • 260055Z AUTO 24005KT 10SM CLR 28/23 A2989 RMK AO2 SLP128 T02790232 $

TAF TAF KVPS
Valid from the 26 at 01:00 until the 27 at 07:00 UTC


260100Z 2601/2707 23006KT 9999 SCT150 QNH2990INS
BECMG 2606/2607 20009KT 9999 BKN015 QNH2992INS
BECMG 2610/2611 21010G15KT 9999 SCT050 QNH2993INS
BECMG 2700/2701 19012KT 9999 VCSH BKN010 QNH2992INS TX31/2618Z TN25/2611Z
KZJX FIR / North America



MET'MAP, your aeronautical weather chart ! - Copyright ORBIFLY December 2007 - Disclaimer

ORBIFLY MET'MAP TEAM :

Programming & Development : Alexandra Zaïnal
Original concept : Baudouin d'Aumeries
Technical & hardware support : Manuel Goepfert
Assistance : Marc-Olivier Méhu




SOURCES & CREDITS :

   NOAA       Earth
Advisory